Time;durP1;ratioP1;P1;durP2;ratioP2;P2;SDS_P1;SDS_P2;PMS_P1;PMS_P2;Temp;Humidity;BMP_temperature;BMP_pressure;BME280_temperature;BME280_humidity;BME280_pressure;Samples;Min_cycle;Max_cycle;Signal;HPM_P1;HPM_P2
2021/10/27 00:00:24;;;;;;;0.38;0.38;;;;;;;;;;5043747;28;20087;-88
2021/10/27 00:02:50;;;;;;;0.20;0.20;;;;;;;;;;5057770;28;20037;-87
2021/10/27 00:05:16;;;;;;;0.17;0.17;;;;;;;;;;5041908;28;20750;-87
2021/10/27 00:07:43;;;;;;;0.10;0.10;;;;;;;;;;5042467;28;20028;-84
2021/10/27 00:10:10;;;;;;;0.28;0.20;;;;;;;;;;5042576;28;20037;-87
2021/10/27 00:12:36;;;;;;;0.10;0.10;;;;;;;;;;5042756;28;20036;-86
2021/10/27 00:15:04;;;;;;;0.50;0.50;;;;;;;;;;5040963;28;20033;-86
2021/10/27 00:17:30;;;;;;;0.20;0.20;;;;;;;;;;5042745;28;20021;-86
2021/10/27 00:19:56;;;;;;;0.53;0.53;;;;;;;;;;5042321;28;20483;-86
2021/10/27 00:22:22;;;;;;;0.20;0.20;;;;;;;;;;5040812;28;20087;-85
2021/10/27 00:24:48;;;;;;;0.10;0.10;;;;;;;;;;5040979;28;20036;-87
2021/10/27 00:27:14;;;;;;;0.15;0.15;;;;;;;;;;5055411;28;20781;-86
2021/10/27 00:29:41;;;;;;;2.15;1.10;;;;;;;;;;5038642;28;20043;-86
2021/10/27 00:32:08;;;;;;;0.10;0.10;;;;;;;;;;5039637;28;20021;-84
2021/10/27 00:34:34;;;;;;;0.10;0.10;;;;;;;;;;5040786;28;20095;-83
2021/10/27 00:37:00;;;;;;;0.10;0.10;;;;;;;;;;5042625;28;20036;-83
2021/10/27 00:39:26;;;;;;;0.20;0.20;;;;;;;;;;5041636;28;20091;-84
2021/10/27 00:41:52;;;;;;;1.07;0.33;;;;;;;;;;5040755;28;20407;-85
2021/10/27 00:44:23;;;;;;;0.10;0.10;;;;;;;;;;5041340;28;20425;-84
2021/10/27 00:46:58;;;;;;;0.22;0.22;;;;;;;;;;5041036;28;20877;-85
2021/10/27 00:49:25;;;;;;;0.10;0.10;;;;;;;;;;5041704;28;20381;-83
2021/10/27 00:51:51;;;;;;;0.20;0.20;;;;;;;;;;5058977;28;20055;-82
2021/10/27 00:54:17;;;;;;;0.30;0.30;;;;;;;;;;5041643;28;20451;-83
2021/10/27 00:56:44;;;;;;;0.10;0.10;;;;;;;;;;5041751;28;20333;-81
2021/10/27 00:59:10;;;;;;;;;;;;;;;;;;5040959;28;20280;-81
2021/10/27 01:01:36;;;;;;;0.30;0.30;;;;;;;;;;5041682;28;20383;-81
2021/10/27 01:04:03;;;;;;;0.25;0.25;;;;;;;;;;5043070;28;20095;-81
2021/10/27 01:06:29;;;;;;;0.38;0.38;;;;;;;;;;5042257;28;20029;-81
2021/10/27 01:08:56;;;;;;;0.30;0.30;;;;;;;;;;5042420;28;20048;-82
2021/10/27 01:11:22;;;;;;;0.00;0.00;;;;;;;;;;5040989;28;20333;-81
2021/10/27 01:13:48;;;;;;;0.40;0.40;;;;;;;;;;5037308;28;20132;-81
2021/10/27 01:16:15;;;;;;;0.53;0.30;;;;;;;;;;5042109;28;20794;-81
2021/10/27 01:18:41;;;;;;;0.88;0.43;;;;;;;;;;5043535;28;20061;-83
2021/10/27 01:21:07;;;;;;;0.20;0.20;;;;;;;;;;5039970;28;20773;-83
2021/10/27 01:23:33;;;;;;;0.10;0.10;;;;;;;;;;5041270;28;20036;-84
2021/10/27 01:26:04;;;;;;;0.40;0.40;;;;;;;;;;5041082;28;20045;-84
2021/10/27 01:28:30;;;;;;;1.15;0.73;;;;;;;;;;5039771;28;20041;-84
2021/10/27 01:30:56;;;;;;;0.43;0.43;;;;;;;;;;5040415;28;20483;-84
2021/10/27 01:33:22;;;;;;;0.10;0.10;;;;;;;;;;5040250;28;20408;-84
2021/10/27 01:35:48;;;;;;;0.10;0.10;;;;;;;;;;5040469;28;20040;-84
2021/10/27 01:38:14;;;;;;;0.30;0.30;;;;;;;;;;5042544;28;20219;-84
2021/10/27 01:40:40;;;;;;;0.20;0.20;;;;;;;;;;5043886;28;20043;-83
2021/10/27 01:43:06;;;;;;;0.35;0.35;;;;;;;;;;5043945;28;20089;-84
2021/10/27 01:45:32;;;;;;;0.20;0.20;;;;;;;;;;5043073;28;20052;-85
2021/10/27 01:47:59;;;;;;;0.10;0.10;;;;;;;;;;5043187;28;20044;-86
2021/10/27 01:50:25;;;;;;;7.37;0.83;;;;;;;;;;5043512;28;20162;-85
2021/10/27 01:52:51;;;;;;;0.17;0.17;;;;;;;;;;5042546;28;20085;-83
2021/10/27 01:55:18;;;;;;;0.20;0.20;;;;;;;;;;5044869;28;20064;-83
2021/10/27 01:57:44;;;;;;;0.30;0.30;;;;;;;;;;5046473;28;20132;-84
2021/10/27 02:00:10;;;;;;;0.30;0.30;;;;;;;;;;5044652;28;20263;-85
2021/10/27 02:02:36;;;;;;;0.10;0.10;;;;;;;;;;5045662;28;20140;-86
2021/10/27 02:05:02;;;;;;;0.77;0.32;;;;;;;;;;5044973;28;20404;-85
2021/10/27 02:07:29;;;;;;;0.33;0.33;;;;;;;;;;5056702;28;20068;-85
2021/10/27 02:09:55;;;;;;;0.40;0.40;;;;;;;;;;5025796;28;20033;-85
2021/10/27 02:12:21;;;;;;;0.30;0.25;;;;;;;;;;5044808;28;20036;-85
2021/10/27 02:14:47;;;;;;;0.98;0.30;;;;;;;;;;5043289;28;20033;-84
2021/10/27 02:17:14;;;;;;;0.30;0.30;;;;;;;;;;5044666;28;20035;-85
2021/10/27 02:19:40;;;;;;;0.70;0.55;;;;;;;;;;5044669;28;20041;-85
2021/10/27 02:22:07;;;;;;;0.10;0.10;;;;;;;;;;5045480;28;20029;-86
2021/10/27 02:24:33;;;;;;;0.10;0.10;;;;;;;;;;5042976;28;20106;-83
2021/10/27 02:26:59;;;;;;;0.20;0.20;;;;;;;;;;5041257;28;20863;-83
2021/10/27 02:29:25;;;;;;;0.38;0.22;;;;;;;;;;5044770;28;20289;-88
2021/10/27 02:31:52;;;;;;;0.10;0.10;;;;;;;;;;5043493;28;20033;-87
2021/10/27 02:34:18;;;;;;;0.10;0.10;;;;;;;;;;5041183;28;20044;-87
2021/10/27 02:36:44;;;;;;;0.53;0.40;;;;;;;;;;5047366;28;20227;-86
2021/10/27 02:39:10;;;;;;;3.40;1.70;;;;;;;;;;5044452;28;20036;-86
2021/10/27 02:41:37;;;;;;;0.47;0.47;;;;;;;;;;5045168;28;20287;-87
2021/10/27 02:44:03;;;;;;;0.10;0.10;;;;;;;;;;5042729;28;20032;-86
2021/10/27 02:46:29;;;;;;;0.00;0.00;;;;;;;;;;5047538;28;20512;-88
2021/10/27 02:48:55;;;;;;;0.10;0.10;;;;;;;;;;5045828;28;20056;-83
2021/10/27 02:51:21;;;;;;;0.77;0.68;;;;;;;;;;5045394;28;20025;-82
2021/10/27 02:53:47;;;;;;;0.35;0.35;;;;;;;;;;5045046;28;20068;-85
2021/10/27 02:56:13;;;;;;;0.23;0.23;;;;;;;;;;5059752;28;20111;-86
2021/10/27 02:58:40;;;;;;;0.53;0.53;;;;;;;;;;5044083;28;20033;-87
2021/10/27 03:01:06;;;;;;;0.10;0.10;;;;;;;;;;5044665;28;20064;-87
2021/10/27 03:03:32;;;;;;;0.10;0.10;;;;;;;;;;5045483;28;20029;-83
2021/10/27 03:05:58;;;;;;;0.13;0.13;;;;;;;;;;5045187;28;20040;-82
2021/10/27 03:08:24;;;;;;;0.88;0.80;;;;;;;;;;5041801;28;20045;-83
2021/10/27 03:10:50;;;;;;;0.30;0.30;;;;;;;;;;5043156;28;20117;-86
2021/10/27 03:13:17;;;;;;;0.40;0.40;;;;;;;;;;5044289;28;20029;-86
2021/10/27 03:15:43;;;;;;;0.10;0.10;;;;;;;;;;5044572;28;20116;-86
2021/10/27 03:18:09;;;;;;;0.10;0.10;;;;;;;;;;5045017;28;20040;-85
2021/10/27 03:20:35;;;;;;;0.10;0.10;;;;;;;;;;5045881;28;20061;-85
2021/10/27 03:23:02;;;;;;;0.10;0.10;;;;;;;;;;5043997;28;20116;-85
2021/10/27 03:25:28;;;;;;;0.10;0.10;;;;;;;;;;5036100;28;20033;-86
2021/10/27 03:27:54;;;;;;;0.20;0.20;;;;;;;;;;5046052;28;20045;-86
2021/10/27 03:30:20;;;;;;;5.03;2.23;;;;;;;;;;5043079;28;20088;-87
2021/10/27 03:32:46;;;;;;;0.30;0.30;;;;;;;;;;5043376;28;20829;-86
2021/10/27 03:35:12;;;;;;;4.40;0.40;;;;;;;;;;5043676;28;20025;-85
2021/10/27 03:37:38;;;;;;;0.40;0.40;;;;;;;;;;5036415;28;20390;-86
2021/10/27 03:40:05;;;;;;;0.10;0.10;;;;;;;;;;5043404;28;20117;-84
2021/10/27 03:42:31;;;;;;;0.70;0.70;;;;;;;;;;5041696;28;20112;-87
2021/10/27 03:44:57;;;;;;;0.10;0.10;;;;;;;;;;5042154;28;20051;-86
2021/10/27 03:47:23;;;;;;;0.20;0.20;;;;;;;;;;5039916;28;20029;-86
2021/10/27 03:49:49;;;;;;;1.45;1.15;;;;;;;;;;5040360;28;20190;-86
2021/10/27 03:52:16;;;;;;;0.10;0.10;;;;;;;;;;5056892;28;20028;-83
2021/10/27 03:54:42;;;;;;;0.30;0.30;;;;;;;;;;5042481;28;20064;-82
2021/10/27 03:57:08;;;;;;;0.10;0.10;;;;;;;;;;5041843;28;20029;-82
2021/10/27 03:59:35;;;;;;;0.08;0.08;;;;;;;;;;5042226;28;20025;-83
2021/10/27 04:02:01;;;;;;;;;;;;;;;;;;5041672;28;20033;-83
2021/10/27 04:04:27;;;;;;;0.10;0.10;;;;;;;;;;5040158;28;19920;-84
2021/10/27 04:06:53;;;;;;;0.10;0.10;;;;;;;;;;5042748;28;20042;-85
2021/10/27 04:09:20;;;;;;;0.77;0.77;;;;;;;;;;5038925;28;20511;-81
2021/10/27 04:11:46;;;;;;;0.10;0.10;;;;;;;;;;5041779;28;20025;-85
2021/10/27 04:14:12;;;;;;;1.17;0.90;;;;;;;;;;5040176;28;20025;-82
2021/10/27 04:16:38;;;;;;;0.30;0.30;;;;;;;;;;5042052;28;20028;-82
2021/10/27 04:19:04;;;;;;;0.83;0.83;;;;;;;;;;5040821;28;20416;-81
2021/10/27 04:21:30;;;;;;;0.55;0.55;;;;;;;;;;5042915;28;20033;-84
2021/10/27 04:23:56;;;;;;;0.73;0.43;;;;;;;;;;5043051;28;20029;-83
2021/10/27 04:26:22;;;;;;;0.30;0.30;;;;;;;;;;5041015;28;20098;-83
2021/10/27 04:28:49;;;;;;;0.03;0.03;;;;;;;;;;5041361;28;20090;-84
2021/10/27 04:31:15;;;;;;;0.20;0.20;;;;;;;;;;5040788;28;20032;-83
2021/10/27 04:33:41;;;;;;;0.60;0.60;;;;;;;;;;5041886;28;20116;-84
2021/10/27 04:36:07;;;;;;;0.20;0.20;;;;;;;;;;5040486;28;20025;-84
2021/10/27 04:38:33;;;;;;;0.25;0.25;;;;;;;;;;5041133;28;20122;-83
2021/10/27 04:41:00;;;;;;;0.10;0.10;;;;;;;;;;5040527;28;20029;-81
2021/10/27 04:43:26;;;;;;;0.00;0.00;;;;;;;;;;5040138;28;20044;-85
2021/10/27 04:45:52;;;;;;;0.57;0.57;;;;;;;;;;5044409;28;20053;-84
2021/10/27 04:48:18;;;;;;;0.10;0.10;;;;;;;;;;5042480;28;20033;-89
2021/10/27 04:50:45;;;;;;;0.17;0.17;;;;;;;;;;5042972;28;20025;-87
2021/10/27 04:53:12;;;;;;;0.10;0.10;;;;;;;;;;5039728;28;20039;-87
2021/10/27 04:55:38;;;;;;;0.00;0.00;;;;;;;;;;5039709;28;20592;-87
2021/10/27 04:58:04;;;;;;;0.35;0.35;;;;;;;;;;5042098;28;20667;-87
2021/10/27 05:00:31;;;;;;;0.20;0.20;;;;;;;;;;5042011;28;20598;-89
2021/10/27 05:02:57;;;;;;;0.30;0.30;;;;;;;;;;5041153;28;20033;-86
2021/10/27 05:05:23;;;;;;;0.47;0.47;;;;;;;;;;5041482;28;20028;-83
2021/10/27 05:07:51;;;;;;;0.10;0.10;;;;;;;;;;5041785;28;20508;-84
2021/10/27 05:10:17;;;;;;;0.25;0.25;;;;;;;;;;5042378;28;20043;-84
2021/10/27 05:12:43;;;;;;;0.10;0.10;;;;;;;;;;5044284;28;20025;-84
2021/10/27 05:15:10;;;;;;;0.10;0.10;;;;;;;;;;5042673;28;20041;-83
2021/10/27 05:17:36;;;;;;;0.73;0.57;;;;;;;;;;5040098;28;20029;-85
2021/10/27 05:20:02;;;;;;;0.15;0.15;;;;;;;;;;5041272;28;20033;-83
2021/10/27 05:22:28;;;;;;;0.20;0.20;;;;;;;;;;5026991;28;20026;-85
2021/10/27 05:24:54;;;;;;;0.00;0.00;;;;;;;;;;5043933;28;20035;-84
2021/10/27 05:27:20;;;;;;;0.10;0.10;;;;;;;;;;5040776;28;20415;-83
2021/10/27 05:29:47;;;;;;;0.03;0.03;;;;;;;;;;5042828;28;20044;-83
2021/10/27 05:32:13;;;;;;;0.00;0.00;;;;;;;;;;5042702;28;20271;-85
2021/10/27 05:34:39;;;;;;;0.10;0.10;;;;;;;;;;5042120;28;20033;-85
2021/10/27 05:37:06;;;;;;;0.10;0.10;;;;;;;;;;5043345;28;20107;-85
2021/10/27 05:39:33;;;;;;;0.10;0.10;;;;;;;;;;5042127;28;20033;-84
2021/10/27 05:41:59;;;;;;;0.95;0.45;;;;;;;;;;5042479;28;20029;-86
2021/10/27 05:44:26;;;;;;;0.20;0.20;;;;;;;;;;5042027;28;20381;-85
2021/10/27 05:46:52;;;;;;;0.00;0.00;;;;;;;;;;5038604;28;20056;-84
2021/10/27 05:49:36;;;;;;;0.10;0.10;;;;;;;;;;5041732;28;20123;-85
2021/10/27 05:57:22;;;;;;;0.10;0.10;;;;;;;;;;5041877;28;20440;-85
2021/10/27 05:59:51;;;;;;;0.10;0.10;;;;;;;;;;5039533;28;20033;-85
2021/10/27 06:02:17;;;;;;;0.10;0.10;;;;;;;;;;5055012;28;20021;-85
2021/10/27 06:04:43;;;;;;;0.00;0.00;;;;;;;;;;5039845;28;20108;-88
2021/10/27 06:07:09;;;;;;;0.43;0.43;;;;;;;;;;5040707;28;20353;-81
2021/10/27 06:09:37;;;;;;;0.00;0.00;;;;;;;;;;5042408;28;20042;-81
2021/10/27 06:12:05;;;;;;;0.30;0.30;;;;;;;;;;5039772;28;20132;-80
2021/10/27 06:14:32;;;;;;;0.35;0.35;;;;;;;;;;5040103;28;20060;-81
2021/10/27 06:16:58;;;;;;;0.20;0.20;;;;;;;;;;5041882;28;20138;-81
2021/10/27 06:19:24;;;;;;;0.08;0.08;;;;;;;;;;5041685;28;20025;-81
2021/10/27 06:21:50;;;;;;;0.13;0.13;;;;;;;;;;5042671;28;20040;-80
2021/10/27 06:24:16;;;;;;;0.10;0.10;;;;;;;;;;5044186;28;20491;-80
2021/10/27 06:26:43;;;;;;;0.15;0.15;;;;;;;;;;5045295;28;20503;-81
2021/10/27 06:29:14;;;;;;;0.17;0.17;;;;;;;;;;5045006;28;20044;-81
2021/10/27 06:31:51;;;;;;;0.00;0.00;;;;;;;;;;5044685;28;20130;-79
2021/10/27 06:35:20;;;;;;;0.10;0.10;;;;;;;;;;5044901;28;20040;-81
2021/10/27 06:37:40;;;;;;;0.10;0.10;;;;;;;;;;5033757;28;20445;-79
2021/10/27 06:48:20;;;;;;;0.10;0.10;;;;;;;;;;5055237;28;20055;-81
2021/10/27 06:50:46;;;;;;;0.88;0.30;;;;;;;;;;5069266;28;20072;-79
2021/10/27 06:53:12;;;;;;;0.10;0.10;;;;;;;;;;5043579;28;20047;-80
2021/10/27 06:55:40;;;;;;;0.10;0.10;;;;;;;;;;5045231;28;20275;-78
2021/10/27 06:58:07;;;;;;;0.43;0.40;;;;;;;;;;5060345;28;20028;-82
2021/10/27 07:00:44;;;;;;;0.10;0.10;;;;;;;;;;5044969;28;20074;-82
2021/10/27 07:16:26;;;;;;;0.30;0.30;;;;;;;;;;5042069;28;20044;-83
2021/10/27 07:18:52;;;;;;;0.03;0.03;;;;;;;;;;5043169;28;20029;-82
2021/10/27 07:21:18;;;;;;;0.10;0.10;;;;;;;;;;5042942;28;20033;-82
2021/10/27 07:23:44;;;;;;;0.10;0.10;;;;;;;;;;5040620;28;20029;-81
2021/10/27 07:26:10;;;;;;;0.00;0.00;;;;;;;;;;5041905;28;21046;-83
2021/10/27 07:28:36;;;;;;;0.10;0.10;;;;;;;;;;5043500;28;20318;-83
2021/10/27 07:31:04;;;;;;;0.20;0.20;;;;;;;;;;5040806;28;20028;-82
2021/10/27 07:33:32;;;;;;;0.65;0.65;;;;;;;;;;5042088;28;20143;-81
2021/10/27 07:36:24;;;;;;;0.45;0.40;;;;;;;;;;5039080;28;20029;-83
2021/10/27 07:41:35;;;;;;;0.10;0.10;;;;;;;;;;5043054;28;20056;-82
2021/10/27 07:44:05;;;;;;;0.10;0.10;;;;;;;;;;5043545;28;20399;-83
2021/10/27 07:46:31;;;;;;;0.10;0.10;;;;;;;;;;5027704;28;20049;-82
2021/10/27 07:48:57;;;;;;;0.10;0.10;;;;;;;;;;5040780;28;20039;-84
2021/10/27 07:51:23;;;;;;;0.30;0.22;;;;;;;;;;5043115;28;20485;-83
2021/10/27 07:53:52;;;;;;;0.45;0.45;;;;;;;;;;5043316;28;20048;-83
2021/10/27 07:56:19;;;;;;;0.20;0.20;;;;;;;;;;5042860;28;20029;-82
2021/10/27 07:58:48;;;;;;;0.10;0.10;;;;;;;;;;5043246;28;20033;-83
2021/10/27 08:01:14;;;;;;;0.10;0.10;;;;;;;;;;5043628;28;20063;-83
2021/10/27 08:03:40;;;;;;;0.17;0.17;;;;;;;;;;5042599;28;20020;-82
2021/10/27 08:06:07;;;;;;;0.10;0.10;;;;;;;;;;5043298;28;20033;-82
2021/10/27 08:08:33;;;;;;;0.32;0.32;;;;;;;;;;5043025;28;20047;-83
2021/10/27 08:10:59;;;;;;;0.20;0.20;;;;;;;;;;5043082;28;20029;-83
2021/10/27 08:13:25;;;;;;;0.15;0.15;;;;;;;;;;5043380;28;20029;-83
2021/10/27 08:15:52;;;;;;;0.43;0.22;;;;;;;;;;5045005;28;20947;-83
2021/10/27 08:18:18;;;;;;;;;;;;;;;;;;5043557;28;20029;-83
2021/10/27 08:20:45;;;;;;;1.02;1.00;;;;;;;;;;5042565;28;20061;-83
2021/10/27 08:23:13;;;;;;;0.00;0.00;;;;;;;;;;5042400;28;20071;-83
2021/10/27 08:25:44;;;;;;;0.00;0.00;;;;;;;;;;5042803;28;20066;-83
2021/10/27 08:28:13;;;;;;;0.00;0.00;;;;;;;;;;5043784;28;20118;-83
2021/10/27 08:30:53;;;;;;;0.47;0.47;;;;;;;;;;5042991;28;20028;-83
2021/10/27 08:33:24;;;;;;;0.00;0.00;;;;;;;;;;5042886;28;20040;-82
2021/10/27 08:35:51;;;;;;;0.30;0.30;;;;;;;;;;5042528;28;20095;-82
2021/10/27 08:38:17;;;;;;;0.10;0.10;;;;;;;;;;5057720;28;20029;-83
2021/10/27 08:40:44;;;;;;;0.50;0.50;;;;;;;;;;5042263;28;20056;-83
2021/10/27 08:43:10;;;;;;;;;;;;;;;;;;5043993;28;20349;-83
2021/10/27 08:45:37;;;;;;;0.20;0.20;;;;;;;;;;5042683;28;19920;-83
2021/10/27 08:48:04;;;;;;;0.10;0.10;;;;;;;;;;5041234;28;20053;-83
2021/10/27 08:50:30;;;;;;;0.10;0.10;;;;;;;;;;5041993;28;20028;-84
2021/10/27 08:52:56;;;;;;;0.00;0.00;;;;;;;;;;5042331;28;20033;-83
2021/10/27 08:55:23;;;;;;;0.00;0.00;;;;;;;;;;5041570;28;20108;-83
2021/10/27 08:57:50;;;;;;;0.30;0.30;;;;;;;;;;5042767;28;20547;-83
2021/10/27 09:35:47;;;;;;;1.13;0.68;;;;;;;;;;5033905;28;20167;-83
2021/10/27 10:05:09;;;;;;;0.10;0.10;;;;;;;;;;5044516;28;20044;-83
2021/10/27 10:07:36;;;;;;;0.30;0.30;;;;;;;;;;5044855;28;20809;-83
2021/10/27 10:10:02;;;;;;;;;;;;;;;;;;5047168;28;20079;-83
2021/10/27 10:12:28;;;;;;;0.10;0.10;;;;;;;;;;5044029;28;19955;-83
2021/10/27 10:14:54;;;;;;;0.17;0.17;;;;;;;;;;5047937;28;20039;-83
2021/10/27 10:17:20;;;;;;;0.20;0.20;;;;;;;;;;5044493;28;20491;-83
2021/10/27 10:19:49;;;;;;;0.20;0.20;;;;;;;;;;5044642;28;20021;-83
2021/10/27 10:22:33;;;;;;;0.20;0.20;;;;;;;;;;5045226;28;20500;-83
2021/10/27 10:25:15;;;;;;;0.10;0.10;;;;;;;;;;5041258;28;20060;-84
2021/10/27 10:27:42;;;;;;;0.20;0.20;;;;;;;;;;5046103;28;20036;-83
2021/10/27 10:30:30;;;;;;;0.32;0.20;;;;;;;;;;5044111;28;20064;-84
2021/10/27 10:33:06;;;;;;;0.00;0.00;;;;;;;;;;5044260;28;20024;-83
2021/10/27 10:36:19;;;;;;;0.32;0.32;;;;;;;;;;5044604;28;20116;-83
2021/10/27 10:44:33;;;;;;;0.20;0.20;;;;;;;;;;5044681;28;20447;-83
2021/10/27 10:56:17;;;;;;;0.10;0.10;;;;;;;;;;5042819;28;20047;-83
2021/10/27 11:24:59;;;;;;;0.00;0.00;;;;;;;;;;4999001;28;20060;-83
2021/10/27 11:41:15;;;;;;;0.38;0.38;;;;;;;;;;4980748;28;20031;-83
2021/10/27 11:43:56;;;;;;;0.45;0.40;;;;;;;;;;4973480;28;20069;-84
2021/10/27 11:46:26;;;;;;;0.20;0.20;;;;;;;;;;4998716;28;20132;-83
2021/10/27 11:48:56;;;;;;;0.22;0.22;;;;;;;;;;4998250;28;20046;-83
2021/10/27 11:51:23;;;;;;;0.00;0.00;;;;;;;;;;4970301;28;20049;-84
2021/10/27 11:53:49;;;;;;;0.10;0.10;;;;;;;;;;4990479;28;20113;-84
2021/10/27 11:56:16;;;;;;;0.85;0.28;;;;;;;;;;4995429;28;20128;-84
2021/10/27 11:58:44;;;;;;;0.28;0.28;;;;;;;;;;4983918;28;20033;-84
2021/10/27 12:01:14;;;;;;;0.30;0.30;;;;;;;;;;4997978;28;20041;-84
2021/10/27 12:03:43;;;;;;;0.13;0.13;;;;;;;;;;4997158;28;20041;-85
2021/10/27 12:06:25;;;;;;;0.45;0.45;;;;;;;;;;4981620;28;20035;-84
2021/10/27 12:19:17;;;;;;;0.27;0.27;;;;;;;;;;5044355;28;20036;-84
2021/10/27 12:21:47;;;;;;;0.28;0.28;;;;;;;;;;5042572;28;20025;-83
2021/10/27 12:24:18;;;;;;;0.10;0.10;;;;;;;;;;5042247;28;20789;-84
2021/10/27 12:26:45;;;;;;;0.10;0.10;;;;;;;;;;5042319;28;20482;-84
2021/10/27 12:29:12;;;;;;;0.10;0.10;;;;;;;;;;5042211;28;20049;-85
2021/10/27 12:31:38;;;;;;;;;;;;;;;;;;5043174;28;20548;-83
2021/10/27 12:34:18;;;;;;;0.30;0.30;;;;;;;;;;5040634;28;19970;-83
2021/10/27 12:36:44;;;;;;;0.30;0.30;;;;;;;;;;5040628;28;20033;-83
2021/10/27 12:39:15;;;;;;;0.00;0.00;;;;;;;;;;5039209;28;20033;-83
2021/10/27 12:41:44;;;;;;;0.15;0.15;;;;;;;;;;5041075;28;20357;-83
2021/10/27 12:44:21;;;;;;;2.80;0.63;;;;;;;;;;5039668;28;20120;-84
2021/10/27 12:46:48;;;;;;;0.13;0.13;;;;;;;;;;5040401;28;20048;-86
2021/10/27 12:49:18;;;;;;;2.00;0.85;;;;;;;;;;5040865;28;20096;-84
2021/10/27 12:51:45;;;;;;;0.25;0.25;;;;;;;;;;5049009;28;20036;-83
2021/10/27 12:54:11;;;;;;;0.10;0.10;;;;;;;;;;5050247;28;20036;-84
2021/10/27 12:56:38;;;;;;;0.33;0.23;;;;;;;;;;5060209;28;20147;-83
2021/10/27 12:59:10;;;;;;;0.73;0.73;;;;;;;;;;5038650;28;20348;-83
2021/10/27 13:01:55;;;;;;;0.10;0.10;;;;;;;;;;5036553;28;20048;-84
2021/10/27 13:07:04;;;;;;;0.00;0.00;;;;;;;;;;5043275;28;20068;-83
2021/10/27 13:30:30;;;;;;;0.00;0.00;;;;;;;;;;5041420;28;20102;-85
2021/10/27 13:32:59;;;;;;;0.20;0.20;;;;;;;;;;5038453;28;20419;-85
2021/10/27 13:35:25;;;;;;;0.10;0.10;;;;;;;;;;5046071;28;20033;-84
2021/10/27 13:37:52;;;;;;;0.17;0.17;;;;;;;;;;5045414;28;20036;-85
2021/10/27 13:40:18;;;;;;;0.15;0.15;;;;;;;;;;5045975;28;20750;-85
2021/10/27 13:42:57;;;;;;;0.20;0.20;;;;;;;;;;5044523;28;20039;-84
2021/10/27 14:05:59;;;;;;;0.45;0.45;;;;;;;;;;5044161;28;20047;-85
2021/10/27 14:20:16;;;;;;;0.10;0.10;;;;;;;;;;5046358;28;20144;-84
2021/10/27 14:39:15;;;;;;;0.45;0.35;;;;;;;;;;5050038;28;20521;-84
2021/10/27 15:20:12;;;;;;;0.10;0.10;;;;;;;;;;5044835;28;20079;-84
2021/10/27 15:30:38;;;;;;;0.30;0.30;;;;;;;;;;5042378;28;21057;-86
2021/10/27 15:44:07;;;;;;;0.35;0.35;;;;;;;;;;5020607;28;20076;-83
2021/10/27 15:52:07;;;;;;;0.50;0.50;;;;;;;;;;5018380;28;20116;-83
2021/10/27 15:54:33;;;;;;;0.10;0.10;;;;;;;;;;5017009;28;20044;-83
2021/10/27 15:57:00;;;;;;;0.00;0.00;;;;;;;;;;5018016;28;20037;-83
2021/10/27 15:59:26;;;;;;;0.00;0.00;;;;;;;;;;5000441;28;20033;-83
2021/10/27 16:01:52;;;;;;;0.10;0.10;;;;;;;;;;5016971;28;20033;-82
2021/10/27 16:04:18;;;;;;;0.10;0.10;;;;;;;;;;5017430;28;20466;-84
2021/10/27 16:06:52;;;;;;;0.15;0.15;;;;;;;;;;5017860;28;20042;-82
2021/10/27 16:09:19;;;;;;;0.10;0.10;;;;;;;;;;5015854;28;20056;-83
2021/10/27 16:11:46;;;;;;;0.00;0.00;;;;;;;;;;5024675;28;20044;-82
2021/10/27 16:14:13;;;;;;;1.60;0.85;;;;;;;;;;5041254;28;20036;-83
2021/10/27 16:16:40;;;;;;;0.08;0.08;;;;;;;;;;5040059;28;20036;-83
2021/10/27 16:19:06;;;;;;;0.10;0.10;;;;;;;;;;5042719;28;20033;-83
2021/10/27 16:21:32;;;;;;;0.00;0.00;;;;;;;;;;5041790;28;20037;-83
2021/10/27 16:23:59;;;;;;;0.10;0.10;;;;;;;;;;5044719;28;20032;-82
2021/10/27 16:26:26;;;;;;;0.10;0.10;;;;;;;;;;5043330;28;20861;-82
2021/10/27 16:28:52;;;;;;;;;;;;;;;;;;5052921;28;20048;-81
2021/10/27 16:31:20;;;;;;;0.00;0.00;;;;;;;;;;5054482;28;19912;-83
2021/10/27 16:33:46;;;;;;;0.28;0.28;;;;;;;;;;5048947;28;20489;-82
2021/10/27 16:36:13;;;;;;;0.10;0.10;;;;;;;;;;5046975;28;20079;-81
2021/10/27 16:38:40;;;;;;;0.13;0.13;;;;;;;;;;5043789;28;20021;-81
2021/10/27 16:41:06;;;;;;;0.10;0.10;;;;;;;;;;5041287;28;20047;-84
2021/10/27 16:43:33;;;;;;;0.20;0.20;;;;;;;;;;5042070;28;20075;-83
2021/10/27 16:45:59;;;;;;;0.20;0.20;;;;;;;;;;5043677;28;20056;-81
2021/10/27 16:48:26;;;;;;;0.10;0.10;;;;;;;;;;5040126;28;20573;-83
2021/10/27 16:50:52;;;;;;;0.10;0.10;;;;;;;;;;5036230;28;20116;-82
2021/10/27 16:53:24;;;;;;;0.10;0.10;;;;;;;;;;5041269;28;20033;-83
2021/10/27 16:55:50;;;;;;;1.00;0.55;;;;;;;;;;5041316;28;20033;-84
2021/10/27 16:58:17;;;;;;;0.10;0.10;;;;;;;;;;5041653;28;20041;-81
2021/10/27 17:00:43;;;;;;;0.10;0.10;;;;;;;;;;5043653;28;20033;-83
2021/10/27 17:03:09;;;;;;;0.10;0.10;;;;;;;;;;5042234;28;20064;-83
2021/10/27 17:05:36;;;;;;;0.00;0.00;;;;;;;;;;5041068;28;21711;-81
2021/10/27 17:08:02;;;;;;;0.10;0.10;;;;;;;;;;5041858;28;20036;-82
2021/10/27 17:10:28;;;;;;;0.10;0.10;;;;;;;;;;5042083;28;20025;-82
2021/10/27 17:12:54;;;;;;;0.93;0.63;;;;;;;;;;5043312;28;20048;-83
2021/10/27 17:15:20;;;;;;;0.53;0.37;;;;;;;;;;5043579;28;20025;-84
2021/10/27 17:17:47;;;;;;;0.10;0.10;;;;;;;;;;5040674;28;20036;-82
2021/10/27 17:20:14;;;;;;;0.10;0.10;;;;;;;;;;5040246;28;20075;-85
2021/10/27 17:22:45;;;;;;;0.30;0.30;;;;;;;;;;5039998;28;20029;-83
2021/10/27 17:25:12;;;;;;;0.05;0.05;;;;;;;;;;5041397;28;20087;-81
2021/10/27 17:27:40;;;;;;;0.10;0.10;;;;;;;;;;5039422;28;20029;-82
2021/10/27 17:30:08;;;;;;;0.17;0.17;;;;;;;;;;5037961;28;20033;-87
2021/10/27 17:32:34;;;;;;;0.15;0.15;;;;;;;;;;5039621;28;20084;-86
2021/10/27 17:35:00;;;;;;;0.00;0.00;;;;;;;;;;5041256;28;20072;-85
2021/10/27 17:37:26;;;;;;;0.30;0.30;;;;;;;;;;5041638;28;20040;-85
2021/10/27 17:39:53;;;;;;;0.20;0.20;;;;;;;;;;5055851;28;20416;-85
2021/10/27 17:42:20;;;;;;;0.10;0.10;;;;;;;;;;5039222;28;20017;-85
2021/10/27 17:44:48;;;;;;;0.00;0.00;;;;;;;;;;5038508;28;20037;-86
2021/10/27 17:47:20;;;;;;;0.10;0.10;;;;;;;;;;5041907;28;20029;-85
2021/10/27 17:50:00;;;;;;;0.20;0.20;;;;;;;;;;5038759;28;20045;-86
2021/10/27 17:52:33;;;;;;;0.32;0.20;;;;;;;;;;5038723;28;20052;-86
2021/10/27 18:00:25;;;;;;;0.22;0.20;;;;;;;;;;5040277;28;20024;-86
2021/10/27 18:02:52;;;;;;;0.00;0.00;;;;;;;;;;5048408;28;20041;-85
2021/10/27 18:05:18;;;;;;;0.00;0.00;;;;;;;;;;5026676;28;20447;-86
2021/10/27 18:07:44;;;;;;;0.30;0.30;;;;;;;;;;5069339;28;20139;-85
2021/10/27 18:10:14;;;;;;;0.20;0.20;;;;;;;;;;5060443;28;20427;-85
2021/10/27 18:12:40;;;;;;;0.13;0.13;;;;;;;;;;5053952;28;20021;-85
2021/10/27 18:15:07;;;;;;;0.10;0.10;;;;;;;;;;5070388;28;20024;-85
2021/10/27 18:17:36;;;;;;;0.10;0.10;;;;;;;;;;5041681;28;20728;-85
2021/10/27 18:20:22;;;;;;;0.55;0.28;;;;;;;;;;5045891;28;20021;-85
2021/10/27 18:23:08;;;;;;;0.10;0.10;;;;;;;;;;5072538;28;20454;-85
2021/10/27 18:25:40;;;;;;;0.10;0.10;;;;;;;;;;5071956;28;20041;-85
2021/10/27 18:36:28;;;;;;;0.10;0.10;;;;;;;;;;5052050;28;20415;-84
2021/10/27 18:39:07;;;;;;;0.30;0.30;;;;;;;;;;5068186;28;20429;-85
2021/10/27 18:41:48;;;;;;;0.85;0.63;;;;;;;;;;5053159;28;20029;-84
2021/10/27 18:44:14;;;;;;;0.10;0.10;;;;;;;;;;5049281;28;20021;-85
2021/10/27 18:46:46;;;;;;;6.15;0.40;;;;;;;;;;5045867;28;20049;-85
2021/10/27 18:49:14;;;;;;;0.40;0.40;;;;;;;;;;5045652;28;20040;-86
2021/10/27 18:51:48;;;;;;;0.17;0.17;;;;;;;;;;5044473;28;20055;-86
2021/10/27 18:54:45;;;;;;;0.10;0.10;;;;;;;;;;5041247;28;20462;-86
2021/10/27 18:59:41;;;;;;;0.40;0.40;;;;;;;;;;5044051;28;20029;-85
2021/10/27 19:02:32;;;;;;;0.10;0.10;;;;;;;;;;5043475;28;20036;-86
2021/10/27 19:10:43;;;;;;;0.47;0.47;;;;;;;;;;5059230;28;20044;-85
2021/10/27 19:15:45;;;;;;;0.30;0.30;;;;;;;;;;5045304;28;20684;-86
2021/10/27 19:18:12;;;;;;;1.38;1.08;;;;;;;;;;5048980;28;20032;-84
2021/10/27 19:20:38;;;;;;;0.10;0.10;;;;;;;;;;5048287;28;20095;-84
2021/10/27 19:23:05;;;;;;;0.10;0.10;;;;;;;;;;5046372;28;20036;-84
2021/10/27 19:25:42;;;;;;;0.10;0.10;;;;;;;;;;5043314;28;20036;-84
2021/10/27 19:28:28;;;;;;;0.80;0.52;;;;;;;;;;5044357;28;20044;-84
2021/10/27 19:36:34;;;;;;;0.10;0.10;;;;;;;;;;5038360;28;20729;-85
2021/10/27 20:09:01;;;;;;;0.20;0.20;;;;;;;;;;5043062;28;20447;-84
2021/10/27 20:30:28;;;;;;;0.28;0.28;;;;;;;;;;5041126;28;20045;-85
2021/10/27 20:54:22;;;;;;;0.20;0.20;;;;;;;;;;5045034;28;20044;-84
2021/10/27 20:56:54;;;;;;;1.08;0.90;;;;;;;;;;5044622;28;20116;-85
2021/10/27 20:59:39;;;;;;;0.17;0.15;;;;;;;;;;5037733;28;20457;-84
2021/10/27 21:02:26;;;;;;;0.20;0.20;;;;;;;;;;5043552;28;20043;-84
2021/10/27 21:13:06;;;;;;;0.40;0.40;;;;;;;;;;5041458;28;20472;-83
2021/10/27 21:15:32;;;;;;;0.10;0.10;;;;;;;;;;5041393;28;20037;-82
2021/10/27 21:17:58;;;;;;;0.30;0.30;;;;;;;;;;5040774;28;20031;-83
2021/10/27 21:20:24;;;;;;;0.15;0.15;;;;;;;;;;5041227;28;20032;-87
2021/10/27 21:22:51;;;;;;;0.50;0.50;;;;;;;;;;5041912;28;20040;-86
2021/10/27 21:25:21;;;;;;;0.20;0.20;;;;;;;;;;5040183;28;20056;-86
2021/10/27 21:43:25;;;;;;;0.25;0.25;;;;;;;;;;5040600;28;20078;-86
2021/10/27 21:45:52;;;;;;;1.20;1.02;;;;;;;;;;5040643;28;20053;-87
2021/10/27 21:48:19;;;;;;;0.10;0.10;;;;;;;;;;5040390;28;20032;-85